METAR / TAF

Die METAR- und TAF-Liste ist aus technischen Gründen (Verfügbarkeit, Update-Zyklen) nicht für ein Meteo-Briefing gedacht. Benutzen Sie stattdessen skybriefing der Skyguide  oder das TAMSI (MeteoSchweiz-eigene Meteo Selfbriefing-Plattform für Firmen aus der Aviatik; Anfragen über das

Kontaktformular

METAR Schweiz

METAR     LSZH 281320Z VRB02KT 9999 FEW012 BKN095 05/02 Q0995 BECMG
               24015G30KT RA=
METAR     LSZH 281350Z VRB02KT 9999 FEW015 SCT100 BKN140 06/03
               Q0995 BECMG 24015G35KT 4500 RA=
METAR     LSGG 281320Z 21027G41KT 9999 TSRA FEW020 SCT040CB BKN055
               12/01 Q0996 TEMPO 4000=
METAR     LSGG 281350Z 25017G29KT 9999 -SHRA FEW015 SCT030TCU
               BKN040 06/03 Q0999 RETSRA NOSIG=
METAR     LFSB 281400Z 23013G24KT 200V260 8000 -SHRA FEW011
               FEW030CB BKN033 04/03 Q0996 TEMPO 29025G45KT 2000
               TSRAGS SCT030CB=
METAR     LSZB 281320Z 20016G33KT 100V250 9999 SCT028 BKN130 11/02
               Q0995 NOSIG=
METAR     LSZB 281350Z VRB06G19KT 9999 FEW028 BKN050 11/02 Q0995
               NOSIG=
METAR     LSZA 281320Z VRB02KT 1300 -DZ BR SCT003 BKN009 OVC020
               06/06 Q1001 NOSIG=
METAR     LSZA 281350Z VRB03KT 1300 RA BR SCT003 BKN008 OVC020
               06/06 Q1001 NOSIG=
METAR     LSZG 281320Z 23001KT 8000 -RA FEW012 SCT028 BKN035 05/04
               Q0996 NOSIG=
METAR     LSZG 281350Z 22003KT 8000 +RA FEW008 SCT025 BKN029 06/05
               Q0996 NOSIG=
METAR     LSZR 281320Z 29004KT 9999 SCT070 BKN120 07/03 Q0996 NOSIG
               RMK J=
METAR     LSZR 281350Z 29005KT 9999 BKN075 07/02 Q0995 NOSIG RMK K=
METAR     LSGS 281320Z 08006KT 6000 SCT010 BKN040 OVC070 05/03
               Q0999=
METAR     LSGS 281350Z 08005KT 6000 SCT010 BKN040 OVC070 06/04
               Q0999=
METAR     LSGC 281320Z 25026G37KT 0900 RASN BCFG SCT014 SCT021
               BKN027 //////TCU 02/01 Q0995 WS R24=
METAR     LSGC 281350Z 24017G35KT 1400 SN BKN007 //////TCU 00/00
               Q0996 WS R24=
METAR     LSZC 281320Z VRB04KT 9999 OVC090 07/04 Q0995=
METAR     LSZC 281350Z 08005KT 040V130 9999 FEW010 BKN140 07/04
               Q0995=
METAR     LSZL 281320Z NIL=
METAR     LSZL 281350Z 28003KT 4000 -RA BR SCT001 BKN005 OVC030
               06/06 Q1001 RMK YLO=
METAR     LSZS 281320Z 20010KT 1000 SN VV006 01/M01 Q0996
               R03/4940// RMK O=
METAR     LSZS 281350Z 19009KT 0800 SN VV005 00/M01 Q0996
               R03/4940// RMK P=
METAR     LSMA 281350Z VRB05G17KT 9999 FEW120 07/04 Q0994 RMK BLU+=
METAR     LSMA NIL=
METAR     LSMD 281350Z VRB02KT 9999 FEW020 BKN090 07/03 Q0995 RMK
               BLU=
METAR     LSMD NIL=
METAR     LSME 281350Z VRB02KT 9999 FEW035 BKN100 08/05 Q0995 RMK
               BLU=
METAR     LSME NIL=
METAR     LSMM 281350Z VRB02KT 9999 FEW100 07/04 Q0995 RMK BLU+=
METAR     LSMM NIL=
METAR     LSMP 281350Z 26025G42KT 230V290 2400 +RA BKN016 OVC037
               05/04 Q0997 RMK YLO=
METAR     LSMP NIL=
METAR CCA LSMS 281350Z 08005KT 7000 FEW007 SCT040 OVC060 06/03
               Q0999 RMK WHT=
METAR     LSMS NIL=
Aktualisiert am Dienstag, 28. Februar 2017, 15:18 Uhr

TAF Schweiz

TAF     LSZH 281125Z 2812/0118 12005KT 9999 FEW008 SCT095 BKN130
             TX07/2814Z TN02/0106Z TX08/0114Z BECMG 2813/2815
             24015G30KT TEMPO 2813/0109 SHRA SCT030TCU TEMPO
             2814/2818 26020G45KT PROB40 TEMPO 2814/2823 4000
             TSRAGS SCT040CB BECMG 2821/2824 25012KT TEMPO
             2823/0115 26015G30KT PROB30 TEMPO 2822/0108 4000 SHGS
             SCT010TCU BKN012 PROB40 TEMPO 0104/0109 SHRASN=
TAF     LSGG 281125Z 2812/0118 21025G37KT 9999 BKN040 BKN090
             TX11/2815Z TN01/0106Z TX09/0115Z BECMG 2812/2814 SHRA
             PROB40 TEMPO 2815/2820 TSRA FEW030CB BKN040 BECMG
             0100/0103 23010KT PROB30 TEMPO 0103/0106 4000 RASN
             TEMPO 0110/0114 23015G25KT=
TAF RRA LFSB 281100Z 2812/0112 23015G25KT 9999 BKN040 TEMPO
             2813/2822 26020G35KT 4000 SHRA SCT040TCU PROB40 TEMPO
             2813/2819 29025G45KT 2000 TSRAGS BKN025 SCT030CB
             PROB30 TEMPO 2822/0106 -SHRA BKN030=
TAF     LSGS 281125Z 2812/2821 VRB04KT 4000 -RA SCT010 OVC030 TEMPO
             2817/2820 23015KT=
TAF     LSZA 281125Z 2812/2821 VRB01KT 1200 -RA BR BKN007 OVC023
             BECMG 2812/2815 2500 BKN010 BECMG 2818/2821 4000 NSW
             SCT010=
TAF     LSZB 281125Z 2812/2821 13006KT 9999 FEW004 SCT010 BKN120
             BECMG 2812/2814 25015G25KT SHRA SCT030TCU TEMPO
             2812/2818 26020G40KT PROB30 TEMPO 2813/2821 TSRA
             SCT030CB=
TAF     LSZG 281125Z 2812/2821 22008KT 9999 BKN007 BKN050 BECMG
             2812/2814 22015G30KT SHRA SCT020TCU BKN030 TEMPO
             2813/2818 24020G40KT PROB40 TEMPO 2813/2821 4000
             TSRAGS SCT030CB=
TAF RRA LSZL 281125Z 2812/2821 VRB03KT 5000 FEW005 BKN030 TEMPO
             2812/2821 1500 SHRA BKN012 OVC020=
TAF     LSZR 281125Z 2812/2821 10006KT 9999 -RA FEW016 BKN070 BECMG
             2814/2816 26015G30KT TEMPO 2815/2821 26020G45KT SHRA=
TAF     LSGC 281125Z 2812/2821 23015G35KT 6000 -SNRA BKN010 BKN020
             BECMG 2816/2818 23015G25KT PROB30 TEMPO 2815/2818
             1500 SN TSGR FEW014CB BKN020=
TAF RRB LSZC 281125Z 2812/2821 VRB03KT 9999 SCT015 BKN050 BECMG
             2812/2815 25020G35KT 4500 SHRA SCT030TCU BKN040
             PROB40 TEMPO 2814/2821 2500 TSRAGR SCT030CB=
TAF     LSZS 281125Z 2812/2821 21010KT 2000 -SN SCT005 BKN010
             TX01/2812Z TEMPO 2812/2821 1000 SN VV005 TEMPO
             2818/2821 SHSN=
TAF RRB LSMA 280925Z 2810/0116 VRB03KT 8000 SCT015 BKN025 BECMG
             2812/2815 03012G25KT TEMPO 2814/0110 SHRA SCT030TCU
             TEMPO 2814/2818 03020G40KT PROB40 TEMPO 2814/2823
             4000 TSRAGS SCT040CB BECMG 2821/2824 25012KT TEMPO
             2823/0116 05015G30KT PROB40 TEMPO 2822/0110 4000
             SHRASN SCT010TCU BKN012 TEMPO 0108/0115 SHRA=
TAF RRA LSMD 280925Z 2810/0116 17006KT 9999 SCT020 BKN040 BECMG
             2812/2815 24015G30KT TEMPO 2813/0108 SHRA SCT030TCU
             TEMPO 2814/2818 26020G45KT PROB40 TEMPO 2814/2823
             4000 TSRAGS SCT040CB BECMG 2821/2824 25012KT TEMPO
             2823/0116 26015G30KT PROB30 TEMPO 2822/0108 4000 SHGS
             SCT010TCU BKN012 TEMPO 0108/0115 SHRA=
TAF RRA LSME 280925Z 2810/0116 VRB03KT 9999 SCT010 BKN030 BECMG
             2812/2815 24015G30KT TEMPO 2813/0108 SHRA SCT030TCU
             TEMPO 2814/2818 26020G45KT PROB40 TEMPO 2814/2823
             4000 TSRAGS SCT040CB BECMG 2821/2824 25012KT TEMPO
             2823/0116 26015G30KT PROB30 TEMPO 2822/0108 4000 SHGS
             SCT010TCU BKN012 TEMPO 0108/0115 SHRA=
TAF RRC LSMM 280925Z 2810/0116 VRB03KT 9999 FEW005 SCT020 BKN040
             BECMG 2813/2816 27015G30KT TEMPO 2815/0110 SHRA
             SCT030TCU TEMPO 2815/2818 27020G40KT PROB40 TEMPO
             2815/2823 4000 TSRAGS SCT040CB BECMG 2821/2824
             27012KT TEMPO 2823/0116 27015G30KT PROB40 TEMPO
             2822/0110 3000 SHSNRA SCT010TCU BKN012 TEMPO
             0110/0115 SHRA=
TAF     LSMP 280925Z 2810/0116 24010KT 8000 -RA SCT020 BKN030 BECMG
             2811/2813 23015G35KT TEMPO 2810/2820 RA BECMG
             0100/0102 23012G25KT PROB30 TEMPO 0103/0107 3000
             -SNRA SCT014 BKN030=
Aktualisiert am Dienstag, 28. Februar 2017, 14:08 Uhr